Time;durP1;ratioP1;P1;durP2;ratioP2;P2;SDS_P1;SDS_P2;PMS_P1;PMS_P2;Temp;Humidity;BMP_temperature;BMP_pressure;BME280_temperature;BME280_humidity;BME280_pressure;Samples;Min_cycle;Max_cycle;Signal;HPM_P1;HPM_P2
2023/06/27 00:00:10;;;;;;;16.42;7.90;;;;;;;19.82;80.67;98614.41;5058362;28;20447;-93
2023/06/27 00:02:36;;;;;;;13.98;7.70;;;;;;;19.77;81.74;98630.03;5020427;28;20045;-94
2023/06/27 00:05:03;;;;;;;15.13;8.10;;;;;;;19.63;82.59;98625.53;5020248;28;20052;-94
2023/06/27 00:07:30;;;;;;;14.30;8.45;;;;;;;19.56;82.78;98626.03;5019518;28;20041;-94
2023/06/27 00:09:56;;;;;;;13.75;8.25;;;;;;;19.64;82.68;98638.03;5019416;28;20042;-93
2023/06/27 00:12:22;;;;;;;14.50;8.68;;;;;;;19.73;81.75;98650.09;5019171;28;20037;-94
2023/06/27 00:14:48;;;;;;;15.77;8.75;;;;;;;19.66;81.83;98630.72;5020492;28;20522;-93
2023/06/27 00:17:16;;;;;;;13.52;8.00;;;;;;;19.66;82.02;98619.91;5019126;28;20045;-93
2023/06/27 00:19:44;;;;;;;13.23;7.95;;;;;;;19.87;81.14;98644.66;5016774;28;20103;-94
2023/06/27 00:22:10;;;;;;;16.15;8.15;;;;;;;19.75;81.13;98606.81;5017080;28;20049;-94
2023/06/27 00:24:39;;;;;;;13.45;8.00;;;;;;;19.87;80.32;98614.97;5019159;28;20077;-95
2023/06/27 00:27:05;;;;;;;14.55;8.45;;;;;;;19.88;80.25;98605.03;5019721;28;20213;-94
2023/06/27 00:29:32;;;;;;;20.75;9.27;;;;;;;19.89;80.87;98629.22;5019526;28;20395;-94
2023/06/27 00:31:58;;;;;;;14.75;8.65;;;;;;;19.82;80.92;98627.03;5014851;28;20492;-95
2023/06/27 00:34:24;;;;;;;15.02;8.93;;;;;;;19.63;82.13;98611.19;5018323;28;20151;-92
2023/06/27 00:36:50;;;;;;;16.92;9.40;;;;;;;19.60;82.39;98623.03;5018772;28;20045;-93
2023/06/27 00:39:16;;;;;;;16.08;9.07;;;;;;;19.39;83.24;98595.66;5051521;28;20045;-93
2023/06/27 00:41:43;;;;;;;15.20;8.95;;;;;;;19.36;86.20;98616.56;5018167;28;20048;-93
2023/06/27 00:44:09;;;;;;;17.17;9.15;;;;;;;19.40;86.33;98632.44;5019011;28;20057;-93
2023/06/27 00:46:37;;;;;;;16.42;9.00;;;;;;;19.21;86.93;98613.03;5018119;28;20053;-94
2023/06/27 00:49:06;;;;;;;14.80;8.55;;;;;;;18.99;88.44;98598.25;5018326;28;20053;-93
2023/06/27 00:51:33;;;;;;;18.02;9.50;;;;;;;18.94;90.15;98604.91;5018453;28;20042;-94
2023/06/27 00:53:59;;;;;;;17.20;9.75;;;;;;;18.97;91.11;98626.25;5018191;28;20075;-93
2023/06/27 00:56:26;;;;;;;18.17;10.15;;;;;;;18.75;93.02;98608.72;5018264;28;20053;-92
2023/06/27 00:58:54;;;;;;;19.63;9.75;;;;;;;18.67;94.74;98614.59;5017950;28;20439;-93
2023/06/27 01:01:20;;;;;;;17.20;8.98;;;;;;;18.66;94.29;98617.38;5026761;28;20452;-93
2023/06/27 01:03:46;;;;;;;17.88;9.75;;;;;;;18.56;95.36;98610.84;5037893;28;20056;-92
2023/06/27 01:06:18;;;;;;;18.17;9.50;;;;;;;18.54;95.78;98628.91;5037737;28;20041;-93
2023/06/27 01:08:50;;;;;;;19.15;9.93;;;;;;;18.46;96.14;98626.72;5038796;28;20040;-93
2023/06/27 01:11:24;;;;;;;15.57;9.02;;;;;;;18.31;97.23;98616.88;5038802;28;20037;-93
2023/06/27 01:13:57;;;;;;;19.30;9.75;;;;;;;18.24;98.16;98625.34;5038230;28;20491;-93
2023/06/27 01:16:28;;;;;;;16.88;9.45;;;;;;;18.25;97.89;98635.13;5018080;28;20080;-92
2023/06/27 01:18:56;;;;;;;18.27;9.55;;;;;;;18.19;99.50;98631.94;5024228;28;20482;-91
2023/06/27 01:21:28;;;;;;;15.87;8.90;;;;;;;18.08;98.53;98611.06;5037489;28;20041;-93
2023/06/27 01:23:58;;;;;;;20.60;10.10;;;;;;;18.01;98.93;98602.50;5037222;28;20045;-93
2023/06/27 01:26:24;;;;;;;18.77;10.18;;;;;;;18.04;100.00;98621.16;5037816;28;20040;-92
2023/06/27 01:28:50;;;;;;;21.70;10.60;;;;;;;17.75;100.00;98589.72;5037842;28;20088;-93
2023/06/27 01:31:23;;;;;;;19.30;10.68;;;;;;;17.81;100.00;98614.41;5037389;28;20490;-92
2023/06/27 01:33:54;;;;;;;16.85;9.57;;;;;;;17.80;100.00;98611.81;5044358;28;20075;-92
2023/06/27 01:36:26;;;;;;;18.45;9.55;;;;;;;17.81;100.00;98618.94;5057540;28;20502;-94
2023/06/27 01:38:58;;;;;;;19.88;10.65;;;;;;;17.71;100.00;98625.81;5057277;28;20041;-94
2023/06/27 01:41:27;;;;;;;18.48;10.10;;;;;;;17.64;100.00;98610.03;5057737;28;20371;-93
2023/06/27 01:43:54;;;;;;;19.38;10.68;;;;;;;17.64;100.00;98601.09;5057858;28;20438;-94
2023/06/27 01:46:24;;;;;;;20.30;10.55;;;;;;;17.64;100.00;98625.28;5057860;28;20387;-95
2023/06/27 01:48:51;;;;;;;20.73;11.13;;;;;;;17.46;100.00;98603.03;5057646;28;20040;-94
2023/06/27 01:51:17;;;;;;;22.77;10.85;;;;;;;17.45;100.00;98617.41;5057221;28;20044;-94
2023/06/27 01:53:43;;;;;;;20.75;10.68;;;;;;;17.41;100.00;98602.41;5042846;28;20080;-92
2023/06/27 01:56:12;;;;;;;21.23;10.48;;;;;;;17.38;100.00;98594.53;5037626;28;20045;-93
2023/06/27 01:58:38;;;;;;;;;;;;;;;17.54;100.00;98629.47;5038319;28;20087;-94
2023/06/27 02:01:04;;;;;;;23.88;10.45;;;;;;;17.41;100.00;98627.50;5037195;28;20321;-94
2023/06/27 02:03:30;;;;;;;20.30;9.85;;;;;;;17.47;100.00;98630.78;5037296;28;20037;-94
2023/06/27 02:05:55;;;;;;;22.15;10.88;;;;;;;17.42;100.00;98626.53;5037005;28;20554;-93
2023/06/27 02:08:21;;;;;;;23.77;10.70;;;;;;;17.27;100.00;98608.59;5037541;28;20041;-94
2023/06/27 02:10:47;;;;;;;23.08;11.00;;;;;;;17.21;100.00;98606.25;5038344;28;20115;-93
2023/06/27 02:13:14;;;;;;;21.10;10.70;;;;;;;17.50;100.00;98626.09;5055797;28;20045;-95
2023/06/27 02:15:40;;;;;;;21.08;10.60;;;;;;;17.68;100.00;98629.53;5052547;28;20044;-94
2023/06/27 02:18:06;;;;;;;23.65;10.68;;;;;;;17.72;100.00;98619.44;5041717;28;20137;-93
2023/06/27 02:20:32;;;;;;;21.83;11.23;;;;;;;17.43;100.00;98598.69;5041483;28;20048;-92
2023/06/27 02:22:58;;;;;;;23.00;11.18;;;;;;;17.44;100.00;98603.13;5058194;28;20049;-92
2023/06/27 02:25:23;;;;;;;27.38;12.73;;;;;;;17.42;100.00;98599.66;5061138;28;20074;-94
2023/06/27 02:27:49;;;;;;;28.65;12.25;;;;;;;17.47;100.00;98630.78;5061592;28;20041;-94
2023/06/27 02:30:17;;;;;;;24.67;11.95;;;;;;;17.35;100.00;98600.06;5060764;28;20044;-94
2023/06/27 02:32:42;;;;;;;23.73;11.98;;;;;;;17.38;100.00;98624.97;5060829;28;20083;-94
2023/06/27 02:35:09;;;;;;;24.73;11.40;;;;;;;17.17;100.00;98600.19;5061013;28;20036;-95
2023/06/27 02:37:34;;;;;;;22.98;10.95;;;;;;;17.17;100.00;98610.06;5061587;28;20050;-94
2023/06/27 02:40:00;;;;;;;20.38;10.20;;;;;;;17.16;100.00;98608.34;5060420;28;20144;-93
2023/06/27 02:42:26;;;;;;;24.83;11.20;;;;;;;17.32;100.00;98625.31;5060504;28;20064;-95
2023/06/27 02:44:52;;;;;;;25.52;12.85;;;;;;;17.21;100.00;98606.25;5060621;28;20509;-93
2023/06/27 02:47:20;;;;;;;24.52;12.20;;;;;;;17.31;100.00;98630.81;5060812;28;20072;-92
2023/06/27 02:49:45;;;;;;;25.80;12.60;;;;;;;17.39;100.00;98628.53;5057931;28;20040;-94
2023/06/27 02:52:11;;;;;;;25.65;11.82;;;;;;;17.27;100.00;98616.66;5041495;28;20053;-95
2023/06/27 02:54:37;;;;;;;27.05;12.65;;;;;;;17.06;100.00;98589.19;5041799;28;20144;-93
2023/06/27 02:57:03;;;;;;;23.90;11.35;;;;;;;17.13;100.00;98581.63;5041247;28;20040;-93
2023/06/27 02:59:29;;;;;;;24.85;12.05;;;;;;;16.99;100.00;98582.44;5041260;28;20072;-95
2023/06/27 03:01:55;;;;;;;27.25;12.40;;;;;;;17.17;100.00;98615.44;5040566;28;20056;-94
2023/06/27 03:04:23;;;;;;;23.90;11.65;;;;;;;17.10;100.00;98608.69;5041183;28;20080;-93
2023/06/27 03:06:49;;;;;;;24.50;12.77;;;;;;;17.06;100.00;98593.69;5040698;28;20103;-93
2023/06/27 03:09:16;;;;;;;27.77;12.93;;;;;;;17.15;100.00;98598.53;5040708;28;20142;-93
2023/06/27 03:11:42;;;;;;;28.67;15.20;;;;;;;16.97;100.00;98606.69;5041394;28;20045;-93
2023/06/27 03:14:08;;;;;;;28.20;12.90;;;;;;;16.90;100.00;98583.81;5041926;28;20044;-93
2023/06/27 03:16:33;;;;;;;31.45;13.88;;;;;;;17.07;100.00;98603.47;5040753;28;20072;-92
2023/06/27 03:18:59;;;;;;;27.88;12.88;;;;;;;16.98;100.00;98607.53;5055608;28;20041;-93
2023/06/27 03:21:27;;;;;;;27.75;12.48;;;;;;;16.84;100.00;98590.38;5052367;28;20120;-93
2023/06/27 03:23:56;;;;;;;35.15;13.27;;;;;;;16.86;100.00;98576.88;5058541;28;20045;-93
2023/06/27 03:26:27;;;;;;;26.83;12.65;;;;;;;17.03;100.00;98600.09;5059662;28;20048;-94
2023/06/27 03:28:53;;;;;;;34.45;13.40;;;;;;;16.76;100.00;98614.09;5042340;28;20124;-91
2023/06/27 03:31:19;;;;;;;27.38;12.95;;;;;;;16.59;100.00;98584.59;5038592;28;20132;-94
2023/06/27 03:33:46;;;;;;;29.98;12.75;;;;;;;16.78;100.00;98597.88;5045174;28;20052;-91
2023/06/27 03:36:12;;;;;;;27.70;12.27;;;;;;;17.19;100.00;98617.09;5041940;28;20459;-93
2023/06/27 03:38:39;;;;;;;30.48;12.95;;;;;;;17.23;100.00;98591.78;5074678;28;20037;-93
2023/06/27 03:41:05;;;;;;;28.00;12.50;;;;;;;17.35;100.00;98600.97;5057904;28;20049;-93
2023/06/27 03:43:30;;;;;;;29.42;12.52;;;;;;;17.30;100.00;98581.53;5049303;28;20041;-93
2023/06/27 03:45:56;;;;;;;27.55;12.05;;;;;;;17.43;100.00;98608.56;5036679;28;20064;-94
2023/06/27 03:48:22;;;;;;;27.10;12.10;;;;;;;17.36;100.00;98591.94;5038834;28;20141;-92
2023/06/27 03:50:48;;;;;;;32.03;11.82;;;;;;;17.35;100.00;98584.84;5039828;28;20136;-93
2023/06/27 03:53:14;;;;;;;28.25;12.32;;;;;;;17.47;100.00;98601.22;5039596;28;20044;-95
2023/06/27 03:55:42;;;;;;;31.63;13.38;;;;;;;17.43;100.00;98600.50;5073533;28;20094;-93
2023/06/27 03:58:08;;;;;;;30.77;12.43;;;;;;;17.44;100.00;98595.06;5078912;28;20033;-94
2023/06/27 04:00:34;;;;;;;31.05;12.30;;;;;;;17.49;100.00;98600.16;5036741;28;20049;-93
2023/06/27 04:03:00;;;;;;;28.77;12.70;;;;;;;17.42;100.00;98578.16;5037335;28;20104;-92
2023/06/27 04:05:26;;;;;;;28.65;11.88;;;;;;;17.36;100.00;98583.00;5040815;28;20107;-93
2023/06/27 04:07:52;;;;;;;29.40;12.52;;;;;;;17.42;100.00;98602.34;5040170;28;20483;-93
2023/06/27 04:10:18;;;;;;;27.73;12.65;;;;;;;17.45;100.00;98598.59;5074270;28;20044;-94
2023/06/27 04:12:45;;;;;;;31.92;12.32;;;;;;;17.45;100.00;98591.41;5040947;28;20040;-93
2023/06/27 04:15:11;;;;;;;24.40;11.80;;;;;;;17.28;100.00;98561.94;5045359;28;20401;-96
2023/06/27 04:17:37;;;;;;;29.90;13.13;;;;;;;17.41;100.00;98584.50;5081108;28;20137;-92
2023/06/27 04:20:03;;;;;;;28.95;12.95;;;;;;;17.36;100.00;98589.25;5051747;28;20061;-92
2023/06/27 04:22:29;;;;;;;28.90;12.52;;;;;;;17.41;100.00;98584.50;5039551;28;20045;-95
2023/06/27 04:24:55;;;;;;;25.58;11.63;;;;;;;17.55;100.00;98609.72;5039273;28;20470;-92
2023/06/27 04:27:34;;;;;;;28.88;12.35;;;;;;;17.51;100.00;98578.56;5040840;28;20479;-94
2023/06/27 04:30:01;;;;;;;27.05;11.50;;;;;;;17.50;100.00;98579.50;5048800;28;20041;-93
2023/06/27 04:32:27;;;;;;;31.63;11.65;;;;;;;17.70;100.00;98594.50;5039342;28;20048;-95
2023/06/27 04:34:57;;;;;;;31.38;12.27;;;;;;;17.54;100.00;98581.94;5042010;28;20044;-93
2023/06/27 04:37:23;;;;;;;25.15;11.70;;;;;;;17.66;100.00;98591.97;5039223;28;20136;-92
2023/06/27 04:39:49;;;;;;;25.65;12.43;;;;;;;17.65;99.77;98587.56;5040022;28;20135;-93
2023/06/27 04:42:16;;;;;;;24.73;10.52;;;;;;;17.73;98.39;98579.03;5038965;28;20053;-94
2023/06/27 04:44:42;;;;;;;31.30;11.80;;;;;;;17.74;97.80;98575.41;5071887;28;20041;-93
2023/06/27 04:47:09;;;;;;;25.30;12.10;;;;;;;17.80;97.80;98593.88;5072353;28;20048;-93
2023/06/27 04:49:35;;;;;;;29.70;11.85;;;;;;;17.80;95.30;98569.66;5041266;28;20040;-92
2023/06/27 04:52:01;;;;;;;25.08;11.48;;;;;;;18.23;92.83;98607.44;5092368;28;20590;-93
2023/06/27 04:54:27;;;;;;;23.50;11.02;;;;;;;18.66;89.00;98595.84;5045590;28;20502;-93
2023/06/27 04:56:53;;;;;;;26.13;11.25;;;;;;;19.46;81.29;98613.16;5039823;28;20040;-94
2023/06/27 04:59:19;;;;;;;28.27;12.15;;;;;;;19.87;78.00;98590.66;5049384;28;20486;-92
2023/06/27 05:01:45;;;;;;;27.25;11.27;;;;;;;20.26;75.33;98588.03;5036640;28;20065;-92
2023/06/27 05:04:12;;;;;;;29.13;12.23;;;;;;;20.68;73.07;98597.66;5035372;28;20077;-94
2023/06/27 05:06:38;;;;;;;24.75;11.32;;;;;;;20.85;72.06;98609.13;5037536;28;20388;-91
2023/06/27 05:09:04;;;;;;;24.80;11.20;;;;;;;20.81;71.91;98603.06;5042962;28;20063;-93
2023/06/27 05:11:30;;;;;;;29.92;11.13;;;;;;;20.86;71.13;98581.09;5072351;28;20136;-94
2023/06/27 05:13:56;;;;;;;24.80;11.98;;;;;;;20.90;69.88;98569.97;5041210;28;20139;-92
2023/06/27 05:16:22;;;;;;;25.25;11.80;;;;;;;20.91;70.27;98592.47;5074141;28;20076;-93
2023/06/27 05:18:48;;;;;;;28.15;11.63;;;;;;;21.14;69.90;98607.00;5040886;28;20045;-93
2023/06/27 05:21:15;;;;;;;27.85;11.73;;;;;;;21.15;71.13;98597.06;5041357;28;20045;-93
2023/06/27 05:23:47;;;;;;;21.17;10.98;;;;;;;21.23;69.32;98591.94;5041335;28;20117;-94
2023/06/27 05:26:13;;;;;;;24.10;11.40;;;;;;;21.02;70.65;98597.09;5040736;28;20037;-94
2023/06/27 05:28:40;;;;;;;26.55;11.85;;;;;;;21.34;70.02;98589.31;5037974;28;20473;-92
2023/06/27 05:31:06;;;;;;;27.13;11.55;;;;;;;21.60;68.34;98578.41;5038268;28;20084;-95
2023/06/27 05:33:31;;;;;;;25.80;11.50;;;;;;;21.75;67.83;98588.06;5039382;28;20052;-93
2023/06/27 05:35:57;;;;;;;23.80;11.52;;;;;;;21.98;65.90;98580.91;5040296;28;20041;-93
2023/06/27 05:38:25;;;;;;;22.80;10.70;;;;;;;22.38;64.18;98579.69;5038556;28;20045;-94
2023/06/27 05:40:51;;;;;;;28.00;10.80;;;;;;;22.54;63.85;98601.88;5038953;28;20045;-94
2023/06/27 05:43:16;;;;;;;24.02;11.55;;;;;;;22.45;64.47;98605.31;5038354;28;20049;-94
2023/06/27 05:45:43;;;;;;;24.35;10.98;;;;;;;22.64;64.19;98604.72;5037775;28;20083;-94
2023/06/27 05:48:08;;;;;;;23.35;11.73;;;;;;;22.70;64.54;98591.53;5037994;28;20099;-95
2023/06/27 05:50:35;;;;;;;25.42;11.50;;;;;;;22.44;66.67;98584.63;5041888;28;20045;-96
2023/06/27 05:53:01;;;;;;;24.00;11.07;;;;;;;22.54;66.36;98589.19;5074706;28;20080;-95
2023/06/27 05:55:28;;;;;;;25.95;11.75;;;;;;;22.65;65.81;98588.34;5075888;28;20515;-92
2023/06/27 05:57:54;;;;;;;24.52;11.90;;;;;;;23.07;64.24;98596.72;5043242;28;20045;-93
2023/06/27 06:00:21;;;;;;;25.00;11.02;;;;;;;23.21;64.04;98594.78;5045148;28;20586;-94
2023/06/27 06:02:47;;;;;;;22.75;10.82;;;;;;;23.45;62.75;98586.47;5045477;28;20032;-93
2023/06/27 06:05:14;;;;;;;25.77;10.98;;;;;;;23.87;61.33;98586.56;5049332;28;20471;-94
2023/06/27 06:07:42;;;;;;;25.08;11.63;;;;;;;24.09;61.00;98607.34;5044392;28;20044;-93
2023/06/27 06:10:09;;;;;;;28.38;11.65;;;;;;;23.62;61.35;98577.75;5045340;28;20140;-94
2023/06/27 06:12:41;;;;;;;22.88;11.00;;;;;;;23.93;58.95;98597.78;5046127;28;20048;-95
2023/06/27 06:15:07;;;;;;;24.35;10.43;;;;;;;23.96;57.54;98591.22;5043001;28;20155;-94
2023/06/27 06:17:33;;;;;;;21.17;10.20;;;;;;;24.02;58.24;98563.53;5042265;28;20061;-94
2023/06/27 06:19:59;;;;;;;23.48;10.90;;;;;;;24.06;57.08;98585.88;5042441;28;20075;-93
2023/06/27 06:22:24;;;;;;;19.50;9.65;;;;;;;24.30;58.00;98572.88;5041949;28;20076;-94
2023/06/27 06:24:50;;;;;;;21.50;10.55;;;;;;;24.60;58.08;98580.25;5043368;28;20045;-92
2023/06/27 06:27:16;;;;;;;20.98;10.63;;;;;;;24.73;57.61;98582.75;5042667;28;20044;-93
2023/06/27 06:29:43;;;;;;;20.05;9.77;;;;;;;24.77;57.68;98595.09;5042481;28;20048;-93
2023/06/27 06:32:09;;;;;;;19.15;10.10;;;;;;;24.63;57.31;98578.25;5042253;28;20094;-92
2023/06/27 06:34:35;;;;;;;20.35;9.82;;;;;;;24.86;56.99;98587.09;5042110;28;20049;-93
2023/06/27 06:37:01;;;;;;;19.63;10.52;;;;;;;24.92;56.27;98600.16;5041839;28;20037;-93
2023/06/27 06:39:27;;;;;;;23.45;10.90;;;;;;;24.52;57.00;98571.03;5041494;28;20461;-94
2023/06/27 06:41:52;;;;;;;19.27;10.27;;;;;;;24.74;55.10;98599.91;5042216;28;20048;-94
2023/06/27 06:44:18;;;;;;;20.17;9.80;;;;;;;24.85;55.00;98597.09;5042400;28;20025;-95
2023/06/27 06:46:46;;;;;;;21.00;9.65;;;;;;;24.67;55.49;98574.28;5046854;28;20045;-93
2023/06/27 06:49:11;;;;;;;25.63;10.55;;;;;;;24.07;57.89;98595.75;5042882;28;20514;-94
2023/06/27 06:51:37;;;;;;;36.65;11.68;;;;;;;23.94;57.90;98590.47;5050082;28;20041;-94
2023/06/27 06:54:03;;;;;;;22.02;9.40;;;;;;;24.13;56.67;98587.91;5044341;28;20098;-93
2023/06/27 06:56:29;;;;;;;21.90;9.00;;;;;;;23.77;54.87;98600.09;5045349;28;20065;-93
2023/06/27 06:58:55;;;;;;;22.65;10.45;;;;;;;23.99;56.67;98591.84;5057676;28;20063;-90
2023/06/27 07:01:22;;;;;;;21.33;9.70;;;;;;;24.31;56.17;98579.16;5040182;28;20582;-94
2023/06/27 07:03:50;;;;;;;21.65;10.23;;;;;;;24.86;54.10;98578.94;5042425;28;20045;-93
2023/06/27 07:06:16;;;;;;;16.77;8.90;;;;;;;24.65;53.01;98582.56;5042660;28;20071;-93
2023/06/27 07:08:41;;;;;;;18.50;9.38;;;;;;;25.04;51.96;98577.28;5034533;28;20038;-92
2023/06/27 07:11:07;;;;;;;19.77;9.15;;;;;;;25.37;50.34;98577.97;5038493;28;20049;-92
2023/06/27 07:13:33;;;;;;;15.93;9.02;;;;;;;25.69;47.86;98566.00;5041761;28;20037;-93
2023/06/27 07:15:59;;;;;;;16.65;8.95;;;;;;;26.21;48.46;98591.09;5044626;28;20384;-92
2023/06/27 07:18:25;;;;;;;18.42;8.75;;;;;;;26.40;48.17;98591.09;5042210;28;20140;-95
2023/06/27 07:20:52;;;;;;;17.23;8.88;;;;;;;26.60;47.40;98594.66;5044493;28;20044;-94
2023/06/27 07:23:18;;;;;;;17.50;9.13;;;;;;;26.44;47.89;98572.56;5041656;28;20064;-92
2023/06/27 07:25:43;;;;;;;16.85;8.65;;;;;;;26.60;49.03;98571.97;5044170;28;20049;-91
2023/06/27 07:28:10;;;;;;;16.77;9.65;;;;;;;26.82;48.32;98590.69;5039159;28;20033;-93
2023/06/27 07:30:35;;;;;;;16.00;9.30;;;;;;;26.57;47.36;98583.19;5042218;28;20132;-93
2023/06/27 07:33:01;;;;;;;17.73;9.05;;;;;;;26.66;48.08;98578.72;5047172;28;20057;-91
2023/06/27 07:35:29;;;;;;;17.95;9.00;;;;;;;26.64;46.41;98576.13;5075268;28;20498;-93
2023/06/27 07:37:56;;;;;;;16.35;9.27;;;;;;;25.96;48.40;98579.81;5043568;28;20114;-92
2023/06/27 07:40:22;;;;;;;16.73;9.48;;;;;;;25.65;50.65;98568.13;5044303;28;20146;-93
2023/06/27 07:42:48;;;;;;;20.55;9.07;;;;;;;26.22;49.70;98584.66;5040179;28;20577;-94
2023/06/27 07:45:13;;;;;;;17.77;9.43;;;;;;;26.51;49.15;98587.31;5042514;28;20059;-91
2023/06/27 07:47:39;;;;;;;16.95;8.95;;;;;;;26.75;49.52;98566.91;5040249;28;20056;-94
2023/06/27 07:50:06;;;;;;;17.52;9.27;;;;;;;26.95;49.00;98589.50;5040301;28;20045;-93
2023/06/27 07:52:32;;;;;;;15.38;8.95;;;;;;;27.07;48.78;98579.28;5041024;28;20037;-92
2023/06/27 07:54:59;;;;;;;15.18;8.77;;;;;;;27.17;48.51;98561.84;5044256;28;20044;-94
2023/06/27 07:57:25;;;;;;;16.35;8.85;;;;;;;27.50;48.09;98564.09;5043917;28;20064;-94
2023/06/27 07:59:50;;;;;;;14.50;9.00;;;;;;;27.74;47.65;98558.91;5056076;28;20037;-94
2023/06/27 08:02:16;;;;;;;14.95;8.63;;;;;;;27.90;46.65;98566.41;5051822;28;20490;-95
2023/06/27 08:04:43;;;;;;;18.38;9.00;;;;;;;27.84;45.55;98559.66;5040018;28;20048;-94
2023/06/27 08:07:09;;;;;;;17.35;9.35;;;;;;;27.86;46.42;98568.59;5039532;28;20513;-94
2023/06/27 08:09:35;;;;;;;16.67;9.18;;;;;;;28.04;47.44;98563.13;5039317;28;20048;-94
2023/06/27 08:12:03;;;;;;;19.80;8.77;;;;;;;28.19;47.88;98570.75;5039119;28;20048;-94
2023/06/27 08:14:29;;;;;;;16.95;8.93;;;;;;;28.24;46.00;98563.81;5039479;28;20475;-94
2023/06/27 08:16:55;;;;;;;26.60;9.95;;;;;;;28.13;46.84;98536.72;5039428;28;20065;-94
2023/06/27 08:19:21;;;;;;;18.73;9.35;;;;;;;27.66;46.54;98526.03;5059269;28;20043;-92
2023/06/27 08:21:47;;;;;;;18.50;8.90;;;;;;;27.85;45.92;98545.03;5080437;28;20059;-94
2023/06/27 08:24:13;;;;;;;19.73;9.30;;;;;;;28.18;46.58;98556.22;5039486;28;20037;-94
2023/06/27 08:26:39;;;;;;;17.58;9.25;;;;;;;28.31;45.68;98530.34;5039714;28;20075;-93
2023/06/27 08:29:06;;;;;;;15.40;9.23;;;;;;;28.49;45.13;98538.53;5039850;28;20042;-94
2023/06/27 08:31:32;;;;;;;14.27;8.45;;;;;;;28.72;43.92;98555.28;5039484;28;20045;-93
2023/06/27 08:33:58;;;;;;;15.38;9.10;;;;;;;28.80;43.32;98553.44;5042826;28;20127;-94
2023/06/27 08:36:23;;;;;;;15.55;9.02;;;;;;;28.56;44.15;98529.53;5039712;28;20052;-93
2023/06/27 08:38:49;;;;;;;17.88;9.43;;;;;;;28.77;44.59;98539.22;5039359;28;20063;-91
2023/06/27 08:41:16;;;;;;;19.40;9.32;;;;;;;28.96;43.64;98541.69;5039663;28;20076;-93
2023/06/27 08:43:42;;;;;;;15.27;8.77;;;;;;;29.15;42.72;98537.88;5081149;28;20109;-91
2023/06/27 08:46:10;;;;;;;14.10;8.65;;;;;;;28.92;42.34;98540.31;5041272;28;20052;-96
2023/06/27 08:48:39;;;;;;;15.85;8.73;;;;;;;29.04;42.57;98544.47;5037910;28;20041;-93
2023/06/27 08:51:08;;;;;;;15.98;8.82;;;;;;;28.73;42.30;98530.47;5038917;28;20033;-94
2023/06/27 08:53:37;;;;;;;13.77;8.43;;;;;;;29.22;42.59;98547.13;5037780;28;20049;-93
2023/06/27 08:56:07;;;;;;;14.93;8.65;;;;;;;29.60;41.44;98555.81;5067039;28;20060;-93
2023/06/27 08:58:40;;;;;;;17.50;8.82;;;;;;;29.63;40.53;98532.69;5038985;28;20045;-92
2023/06/27 09:01:07;;;;;;;15.32;8.77;;;;;;;29.82;41.55;98540.63;5037535;28;20123;-94
2023/06/27 09:03:35;;;;;;;16.42;8.57;;;;;;;29.65;40.25;98528.75;5039592;28;20084;-93
2023/06/27 09:06:03;;;;;;;14.35;8.68;;;;;;;29.99;41.36;98540.63;5036353;28;20048;-94
2023/06/27 09:08:29;;;;;;;15.35;8.90;;;;;;;30.10;40.45;98541.16;5051252;28;20068;-94
2023/06/27 09:10:56;;;;;;;17.55;8.70;;;;;;;30.13;40.45;98528.97;5057693;28;20048;-93
2023/06/27 09:13:23;;;;;;;19.63;9.43;;;;;;;30.41;41.17;98543.22;5042164;28;20045;-94
2023/06/27 09:15:48;;;;;;;15.45;8.95;;;;;;;30.39;40.25;98516.97;5039575;28;20087;-92
2023/06/27 09:18:14;;;;;;;17.13;8.93;;;;;;;30.53;39.53;98540.94;5037990;28;20045;-93
2023/06/27 09:20:42;;;;;;;15.40;8.93;;;;;;;30.58;40.84;98524.84;5037294;28;20048;-92
2023/06/27 09:23:08;;;;;;;14.70;9.40;;;;;;;30.34;40.19;98530.34;5037134;28;20037;-93
2023/06/27 09:25:34;;;;;;;17.17;8.25;;;;;;;30.54;40.97;98534.44;5037835;28;20029;-94
2023/06/27 09:28:14;;;;;;;16.55;8.75;;;;;;;30.74;40.20;98526.66;5038026;28;20048;-94
2023/06/27 09:30:50;;;;;;;13.88;8.75;;;;;;;30.84;39.81;98529.19;5038558;28;20455;-95
2023/06/27 09:33:18;;;;;;;15.18;8.82;;;;;;;30.88;39.30;98512.25;5038121;28;20041;-96
2023/06/27 09:35:46;;;;;;;14.18;8.80;;;;;;;31.01;39.21;98521.78;5037808;28;20048;-95
2023/06/27 09:38:12;;;;;;;15.30;8.97;;;;;;;31.09;39.43;98510.78;5036632;28;20041;-94
2023/06/27 09:40:38;;;;;;;18.23;8.90;;;;;;;30.97;38.42;98515.81;5037704;28;20049;-95
2023/06/27 09:43:05;;;;;;;17.27;8.82;;;;;;;30.96;38.45;98513.25;5037682;28;20127;-95
2023/06/27 09:45:31;;;;;;;12.90;8.38;;;;;;;31.23;37.96;98510.03;5037751;28;20045;-95
2023/06/27 09:47:58;;;;;;;17.67;8.98;;;;;;;30.98;37.12;98517.50;5044324;28;20049;-94
2023/06/27 09:50:26;;;;;;;14.40;8.60;;;;;;;31.23;38.05;98517.38;5057485;28;20041;-94
2023/06/27 09:52:54;;;;;;;14.85;8.88;;;;;;;31.33;37.37;98507.88;5051975;28;20067;-94
2023/06/27 09:55:20;;;;;;;13.73;8.40;;;;;;;31.23;35.87;98489.91;5040094;28;20474;-95
2023/06/27 09:57:47;;;;;;;15.32;8.25;;;;;;;31.01;36.27;98488.84;5075186;28;20041;-93
2023/06/27 10:00:17;;;;;;;13.55;7.97;;;;;;;31.34;37.58;98511.50;5041855;28;20155;-93
2023/06/27 10:02:46;;;;;;;14.25;7.80;;;;;;;31.17;34.43;98487.91;5042795;28;20044;-93
2023/06/27 10:05:12;;;;;;;15.77;7.97;;;;;;;31.28;36.03;98488.34;5042634;28;20037;-93
2023/06/27 10:07:39;;;;;;;14.52;8.02;;;;;;;31.46;34.69;98495.47;5042142;28;20055;-95
2023/06/27 10:10:08;;;;;;;11.80;7.22;;;;;;;31.58;35.76;98479.44;5044653;28;20399;-94
2023/06/27 10:12:34;;;;;;;15.13;8.18;;;;;;;31.76;34.31;98493.72;5041307;28;20041;-94
2023/06/27 10:15:00;;;;;;;12.02;7.45;;;;;;;31.09;34.86;98481.41;5041003;28;20070;-94
2023/06/27 10:17:28;;;;;;;12.30;7.05;;;;;;;31.26;33.40;98475.84;5052244;28;20375;-93
2023/06/27 10:19:54;;;;;;;10.13;6.75;;;;;;;31.43;34.26;98484.88;5040410;28;20407;-94
2023/06/27 10:22:21;;;;;;;16.77;7.80;;;;;;;31.54;33.26;98464.34;5058439;28;20045;-94
2023/06/27 10:24:51;;;;;;;12.32;7.22;;;;;;;31.48;32.22;98469.53;5049100;28;20045;-94
2023/06/27 10:27:25;;;;;;;12.38;6.80;;;;;;;31.77;33.64;98481.66;5042582;28;20452;-94
2023/06/27 10:29:51;;;;;;;11.25;6.78;;;;;;;31.91;31.76;98463.53;5042643;28;20144;-94
2023/06/27 10:32:18;;;;;;;10.93;6.45;;;;;;;31.95;30.74;98455.78;5040250;28;20065;-95
2023/06/27 10:34:45;;;;;;;9.73;6.53;;;;;;;32.00;29.95;98458.84;5041030;28;20041;-95
2023/06/27 10:37:12;;;;;;;10.45;5.40;;;;;;;32.16;29.44;98449.56;5044142;28;20140;-93
2023/06/27 10:39:39;;;;;;;10.57;5.93;;;;;;;32.35;29.35;98457.28;5043847;28;20049;-93
2023/06/27 10:42:15;;;;;;;9.00;5.65;;;;;;;32.37;27.42;98466.19;5048874;28;20096;-94
2023/06/27 10:45:05;;;;;;;8.02;5.25;;;;;;;32.50;26.51;98468.28;5044702;28;20051;-94
2023/06/27 10:47:34;;;;;;;9.82;6.05;;;;;;;32.26;26.79;98453.75;5034762;28;20056;-92
2023/06/27 10:50:04;;;;;;;10.02;5.45;;;;;;;32.34;25.38;98448.16;5048795;28;20049;-95
2023/06/27 10:52:30;;;;;;;8.70;5.53;;;;;;;32.32;27.36;98452.16;5048012;28;20051;-94
2023/06/27 10:55:21;;;;;;;11.57;5.75;;;;;;;32.53;29.20;98466.06;5048319;28;20045;-95
2023/06/27 10:57:50;;;;;;;13.27;5.93;;;;;;;32.44;29.67;98433.25;5044369;28;20094;-94
2023/06/27 11:00:24;;;;;;;11.15;6.10;;;;;;;32.34;27.83;98439.91;5051149;28;20037;-94
2023/06/27 11:02:53;;;;;;;10.35;6.10;;;;;;;32.29;28.04;98458.00;5050106;28;20055;-91
2023/06/27 11:05:34;;;;;;;8.85;5.72;;;;;;;32.22;29.80;98444.16;5053128;28;20048;-93
2023/06/27 11:08:00;;;;;;;9.32;5.72;;;;;;;32.36;30.09;98445.22;5045472;28;20067;-94
2023/06/27 11:10:29;;;;;;;8.55;5.75;;;;;;;32.45;27.54;98427.56;5053256;28;20045;-94
2023/06/27 11:13:13;;;;;;;7.65;4.97;;;;;;;32.71;28.01;98431.78;5054184;28;20037;-92
2023/06/27 11:15:41;;;;;;;9.45;4.82;;;;;;;32.79;26.00;98433.56;5041847;28;20041;-94
2023/06/27 11:18:06;;;;;;;9.05;4.97;;;;;;;32.95;26.97;98431.44;5057078;28;20048;-95